Stacja Pogody
Warszawa Praga-Północ

Szerokość 52°15'43"N Długość 21°01'22"E Wysokość 110m n.p.m.


50 dzień roku.   Do końca pozostalo 315 dni.   Od wczoraj przybyło 3 min. i 54 sek. dnia.
Wschód Słońca 06:43 Górowanie Słońca 11:49 Zachód Słońca 16:55 ryby
Data juliańska 2457804.027 Odległość Słońca 147893523 km Średn. kątowa Słońca 0,324°
Wschód Księżyca 01:11 Zachód Księżyca 10:33 Wiek Księżyca 23 dni Moon
Widoczność Księżyca 43,13% Odległość Księżyca 405306 km Średn. kątowa Księżyca 0,295°
Dzień krótszy od najdłuższego o: 06:35 Długość dnia 10:11 Imieniny Arnolda, Konrada, Marcelego



  Aktualizacja: 19-02-2017 12:38:46
TEMPERATURA
Aktualnie: 3.6°C ↑
Temperatura odczuwalna:-1.2°C
Punkt rosy-1.4°C
WIATR
Średnia prędkość: 13.3km/h ↑
Prędkość w podmuchach:17.3km/h
Przepływ w ciągu doby:155.0km
Kierunek wiatru:360°
CIŚNIENIE
Względne:1021.1hPa
Bezwzględne:1007.8hPa
Trend ciśnienia:powolny spadek
WILGOTNOŚĆ
Wilgotność względna: 71% ↓
Podstawa chmur2379m
DESZCZ
W ostatniej godzinie: 0.0mm
Dzisiaj:0.6mm
W tym miesiącu:13.5mm
METAR
EPWA 191100Z 21008KT 9999 BKN023 03/00 Q1021 NOSIG
Ostrzeżenia burzowe
Prognoza 12-to godzinna (prawdopodobieństwo 75%):   Opady, coraz mniej stabilna pogoda prognoza





a  a a